sensor_id;sensor_type;location;lat;lon;timestamp;P1;durP1;ratioP1;P2;durP2;ratioP2
74715;SDS011;63234;37.558;127.058;2024-02-21T00:00:55;487.23;;;269.70;;
74715;SDS011;63234;37.558;127.058;2024-02-21T00:03:21;470.40;;;260.90;;
74715;SDS011;63234;37.558;127.058;2024-02-21T00:05:46;368.70;;;205.57;;
74715;SDS011;63234;37.558;127.058;2024-02-21T00:08:11;308.13;;;162.63;;
74715;SDS011;63234;37.558;127.058;2024-02-21T00:10:37;230.10;;;127.50;;
74715;SDS011;63234;37.558;127.058;2024-02-21T00:13:03;231.18;;;129.70;;
74715;SDS011;63234;37.558;127.058;2024-02-21T00:15:28;340.73;;;178.45;;
74715;SDS011;63234;37.558;127.058;2024-02-21T00:17:53;372.33;;;194.85;;
74715;SDS011;63234;37.558;127.058;2024-02-21T00:20:19;290.08;;;150.05;;
74715;SDS011;63234;37.558;127.058;2024-02-21T00:22:45;77.47;;;56.20;;
74715;SDS011;63234;37.558;127.058;2024-02-21T00:25:10;98.03;;;68.28;;
74715;SDS011;63234;37.558;127.058;2024-02-21T00:27:36;315.85;;;163.05;;
74715;SDS011;63234;37.558;127.058;2024-02-21T00:30:01;365.35;;;197.65;;
74715;SDS011;63234;37.558;127.058;2024-02-21T00:32:27;392.63;;;206.15;;
74715;SDS011;63234;37.558;127.058;2024-02-21T00:34:52;404.73;;;212.75;;
74715;SDS011;63234;37.558;127.058;2024-02-21T00:37:18;390.67;;;214.77;;
74715;SDS011;63234;37.558;127.058;2024-02-21T00:39:43;389.40;;;213.48;;
74715;SDS011;63234;37.558;127.058;2024-02-21T00:42:08;398.15;;;209.25;;
74715;SDS011;63234;37.558;127.058;2024-02-21T00:44:34;387.42;;;203.80;;
74715;SDS011;63234;37.558;127.058;2024-02-21T00:46:59;375.55;;;197.23;;
74715;SDS011;63234;37.558;127.058;2024-02-21T00:49:24;336.20;;;177.95;;
74715;SDS011;63234;37.558;127.058;2024-02-21T00:51:50;323.33;;;168.30;;
74715;SDS011;63234;37.558;127.058;2024-02-21T00:54:15;357.88;;;186.05;;
74715;SDS011;63234;37.558;127.058;2024-02-21T00:56:41;374.77;;;194.57;;
74715;SDS011;63234;37.558;127.058;2024-02-21T00:59:06;392.52;;;207.48;;
74715;SDS011;63234;37.558;127.058;2024-02-21T01:01:32;388.40;;;209.48;;
74715;SDS011;63234;37.558;127.058;2024-02-21T01:03:57;405.42;;;214.13;;
74715;SDS011;63234;37.558;127.058;2024-02-21T01:06:23;405.58;;;218.90;;
74715;SDS011;63234;37.558;127.058;2024-02-21T01:08:48;396.35;;;207.85;;
74715;SDS011;63234;37.558;127.058;2024-02-21T01:11:14;412.52;;;218.63;;
74715;SDS011;63234;37.558;127.058;2024-02-21T01:13:40;395.98;;;216.50;;
74715;SDS011;63234;37.558;127.058;2024-02-21T01:16:05;386.67;;;205.10;;
74715;SDS011;63234;37.558;127.058;2024-02-21T01:18:32;338.15;;;180.73;;
74715;SDS011;63234;37.558;127.058;2024-02-21T01:20:58;338.35;;;179.43;;
74715;SDS011;63234;37.558;127.058;2024-02-21T01:23:24;209.73;;;115.97;;
74715;SDS011;63234;37.558;127.058;2024-02-21T01:25:49;151.35;;;90.85;;
74715;SDS011;63234;37.558;127.058;2024-02-21T01:28:14;292.48;;;160.50;;
74715;SDS011;63234;37.558;127.058;2024-02-21T01:30:40;293.50;;;153.70;;
74715;SDS011;63234;37.558;127.058;2024-02-21T01:33:05;316.88;;;172.70;;
74715;SDS011;63234;37.558;127.058;2024-02-21T01:35:31;334.48;;;175.38;;
74715;SDS011;63234;37.558;127.058;2024-02-21T01:37:56;331.70;;;176.27;;
74715;SDS011;63234;37.558;127.058;2024-02-21T01:40:21;335.23;;;177.38;;
74715;SDS011;63234;37.558;127.058;2024-02-21T01:42:46;332.48;;;175.15;;
74715;SDS011;63234;37.558;127.058;2024-02-21T01:45:13;335.98;;;178.73;;
74715;SDS011;63234;37.558;127.058;2024-02-21T01:47:39;341.80;;;178.02;;
74715;SDS011;63234;37.558;127.058;2024-02-21T01:50:05;354.42;;;185.98;;
74715;SDS011;63234;37.558;127.058;2024-02-21T01:52:31;334.33;;;176.88;;
74715;SDS011;63234;37.558;127.058;2024-02-21T01:54:57;354.92;;;190.57;;
74715;SDS011;63234;37.558;127.058;2024-02-21T01:57:23;292.15;;;153.63;;
74715;SDS011;63234;37.558;127.058;2024-02-21T01:59:49;314.98;;;167.10;;
74715;SDS011;63234;37.558;127.058;2024-02-21T02:02:15;295.45;;;161.88;;
74715;SDS011;63234;37.558;127.058;2024-02-21T02:04:41;321.77;;;169.75;;
74715;SDS011;63234;37.558;127.058;2024-02-21T02:07:07;324.38;;;175.30;;
74715;SDS011;63234;37.558;127.058;2024-02-21T02:09:33;325.60;;;172.18;;
74715;SDS011;63234;37.558;127.058;2024-02-21T02:11:59;337.65;;;177.85;;
74715;SDS011;63234;37.558;127.058;2024-02-21T02:14:25;346.85;;;183.57;;
74715;SDS011;63234;37.558;127.058;2024-02-21T02:16:50;331.50;;;173.82;;
74715;SDS011;63234;37.558;127.058;2024-02-21T02:19:16;254.98;;;137.77;;
74715;SDS011;63234;37.558;127.058;2024-02-21T02:21:42;359.10;;;185.80;;
74715;SDS011;63234;37.558;127.058;2024-02-21T02:24:20;364.40;;;194.52;;
74715;SDS011;63234;37.558;127.058;2024-02-21T02:26:47;344.35;;;186.68;;
74715;SDS011;63234;37.558;127.058;2024-02-21T02:29:12;344.50;;;181.57;;
74715;SDS011;63234;37.558;127.058;2024-02-21T02:31:37;334.42;;;179.50;;
74715;SDS011;63234;37.558;127.058;2024-02-21T02:34:03;316.20;;;165.50;;
74715;SDS011;63234;37.558;127.058;2024-02-21T02:36:29;332.95;;;174.73;;
74715;SDS011;63234;37.558;127.058;2024-02-21T02:38:58;314.85;;;166.82;;
74715;SDS011;63234;37.558;127.058;2024-02-21T02:41:23;280.02;;;143.57;;
74715;SDS011;63234;37.558;127.058;2024-02-21T02:43:48;302.80;;;167.30;;
74715;SDS011;63234;37.558;127.058;2024-02-21T02:46:14;306.83;;;169.55;;
74715;SDS011;63234;37.558;127.058;2024-02-21T02:48:39;346.52;;;183.20;;
74715;SDS011;63234;37.558;127.058;2024-02-21T02:51:04;349.27;;;182.98;;
74715;SDS011;63234;37.558;127.058;2024-02-21T02:53:30;338.83;;;180.32;;
74715;SDS011;63234;37.558;127.058;2024-02-21T02:55:55;301.77;;;164.10;;
74715;SDS011;63234;37.558;127.058;2024-02-21T02:58:20;302.52;;;168.07;;
74715;SDS011;63234;37.558;127.058;2024-02-21T03:00:46;311.00;;;174.57;;
74715;SDS011;63234;37.558;127.058;2024-02-21T03:03:11;337.70;;;179.88;;
74715;SDS011;63234;37.558;127.058;2024-02-21T03:05:37;326.20;;;171.57;;
74715;SDS011;63234;37.558;127.058;2024-02-21T03:08:02;299.65;;;160.20;;
74715;SDS011;63234;37.558;127.058;2024-02-21T03:10:31;322.70;;;171.85;;
74715;SDS011;63234;37.558;127.058;2024-02-21T03:12:57;316.05;;;169.65;;
74715;SDS011;63234;37.558;127.058;2024-02-21T03:15:23;328.80;;;175.52;;
74715;SDS011;63234;37.558;127.058;2024-02-21T03:17:49;326.10;;;174.63;;
74715;SDS011;63234;37.558;127.058;2024-02-21T03:20:14;333.08;;;177.52;;
74715;SDS011;63234;37.558;127.058;2024-02-21T03:22:40;319.65;;;171.60;;
74715;SDS011;63234;37.558;127.058;2024-02-21T03:25:06;314.05;;;175.80;;
74715;SDS011;63234;37.558;127.058;2024-02-21T03:27:32;313.40;;;172.13;;
74715;SDS011;63234;37.558;127.058;2024-02-21T03:29:57;308.95;;;171.95;;
74715;SDS011;63234;37.558;127.058;2024-02-21T03:32:23;325.55;;;170.70;;
74715;SDS011;63234;37.558;127.058;2024-02-21T03:34:49;271.50;;;153.05;;
74715;SDS011;63234;37.558;127.058;2024-02-21T03:37:14;278.88;;;152.57;;
74715;SDS011;63234;37.558;127.058;2024-02-21T03:39:40;301.13;;;163.05;;
74715;SDS011;63234;37.558;127.058;2024-02-21T03:42:05;300.23;;;160.57;;
74715;SDS011;63234;37.558;127.058;2024-02-21T03:44:31;308.52;;;166.77;;
74715;SDS011;63234;37.558;127.058;2024-02-21T03:46:57;304.75;;;164.90;;
74715;SDS011;63234;37.558;127.058;2024-02-21T03:49:23;308.52;;;170.65;;
74715;SDS011;63234;37.558;127.058;2024-02-21T03:51:49;299.17;;;169.38;;
74715;SDS011;63234;37.558;127.058;2024-02-21T03:54:14;303.52;;;168.02;;
74715;SDS011;63234;37.558;127.058;2024-02-21T03:56:39;297.67;;;167.15;;
74715;SDS011;63234;37.558;127.058;2024-02-21T03:59:08;306.80;;;173.88;;
74715;SDS011;63234;37.558;127.058;2024-02-21T04:01:36;320.98;;;182.80;;
74715;SDS011;63234;37.558;127.058;2024-02-21T04:04:01;324.83;;;176.75;;
74715;SDS011;63234;37.558;127.058;2024-02-21T04:06:27;316.50;;;180.50;;
74715;SDS011;63234;37.558;127.058;2024-02-21T04:08:53;321.02;;;174.23;;
74715;SDS011;63234;37.558;127.058;2024-02-21T04:11:18;243.50;;;134.27;;
74715;SDS011;63234;37.558;127.058;2024-02-21T04:13:44;318.83;;;177.48;;
74715;SDS011;63234;37.558;127.058;2024-02-21T04:16:09;344.63;;;181.55;;
74715;SDS011;63234;37.558;127.058;2024-02-21T04:18:35;320.40;;;174.43;;
74715;SDS011;63234;37.558;127.058;2024-02-21T04:21:00;339.10;;;178.25;;
74715;SDS011;63234;37.558;127.058;2024-02-21T04:23:26;307.52;;;170.70;;
74715;SDS011;63234;37.558;127.058;2024-02-21T04:25:51;308.75;;;168.73;;
74715;SDS011;63234;37.558;127.058;2024-02-21T04:28:17;294.73;;;166.90;;
74715;SDS011;63234;37.558;127.058;2024-02-21T04:30:42;287.05;;;155.75;;
74715;SDS011;63234;37.558;127.058;2024-02-21T04:33:08;286.85;;;157.10;;
74715;SDS011;63234;37.558;127.058;2024-02-21T04:35:33;281.08;;;153.48;;
74715;SDS011;63234;37.558;127.058;2024-02-21T04:38:00;263.40;;;148.90;;
74715;SDS011;63234;37.558;127.058;2024-02-21T04:40:26;269.05;;;147.32;;
74715;SDS011;63234;37.558;127.058;2024-02-21T04:42:51;261.13;;;149.85;;
74715;SDS011;63234;37.558;127.058;2024-02-21T04:45:16;268.02;;;146.10;;
74715;SDS011;63234;37.558;127.058;2024-02-21T04:47:42;227.20;;;131.63;;
74715;SDS011;63234;37.558;127.058;2024-02-21T04:50:08;226.30;;;127.88;;
74715;SDS011;63234;37.558;127.058;2024-02-21T04:52:33;217.13;;;124.63;;
74715;SDS011;63234;37.558;127.058;2024-02-21T04:54:58;211.35;;;121.15;;
74715;SDS011;63234;37.558;127.058;2024-02-21T04:57:24;206.13;;;119.22;;
74715;SDS011;63234;37.558;127.058;2024-02-21T04:59:50;192.73;;;114.50;;
74715;SDS011;63234;37.558;127.058;2024-02-21T05:02:15;23.95;;;17.75;;
74715;SDS011;63234;37.558;127.058;2024-02-21T05:04:42;10.90;;;7.13;;
74715;SDS011;63234;37.558;127.058;2024-02-21T05:07:08;13.80;;;7.90;;
74715;SDS011;63234;37.558;127.058;2024-02-21T05:09:34;25.73;;;23.88;;
74715;SDS011;63234;37.558;127.058;2024-02-21T05:11:59;5.07;;;3.38;;
74715;SDS011;63234;37.558;127.058;2024-02-21T05:14:25;6.57;;;3.45;;
74715;SDS011;63234;37.558;127.058;2024-02-21T05:16:51;259.70;;;148.82;;
74715;SDS011;63234;37.558;127.058;2024-02-21T05:19:17;252.73;;;141.30;;
74715;SDS011;63234;37.558;127.058;2024-02-21T05:21:42;153.15;;;96.85;;
74715;SDS011;63234;37.558;127.058;2024-02-21T05:24:07;169.93;;;102.03;;
74715;SDS011;63234;37.558;127.058;2024-02-21T05:26:33;157.93;;;97.45;;
74715;SDS011;63234;37.558;127.058;2024-02-21T05:28:58;208.52;;;117.15;;
74715;SDS011;63234;37.558;127.058;2024-02-21T05:31:24;263.73;;;146.30;;
74715;SDS011;63234;37.558;127.058;2024-02-21T05:33:50;325.48;;;179.88;;
74715;SDS011;63234;37.558;127.058;2024-02-21T05:36:15;301.17;;;170.55;;
74715;SDS011;63234;37.558;127.058;2024-02-21T05:38:40;319.00;;;182.90;;
74715;SDS011;63234;37.558;127.058;2024-02-21T05:41:06;329.60;;;184.18;;
74715;SDS011;63234;37.558;127.058;2024-02-21T05:43:31;332.90;;;192.70;;
74715;SDS011;63234;37.558;127.058;2024-02-21T05:45:57;351.52;;;199.48;;
74715;SDS011;63234;37.558;127.058;2024-02-21T05:48:23;343.35;;;202.32;;
74715;SDS011;63234;37.558;127.058;2024-02-21T05:50:49;337.45;;;196.90;;
74715;SDS011;63234;37.558;127.058;2024-02-21T05:53:14;365.85;;;202.88;;
74715;SDS011;63234;37.558;127.058;2024-02-21T05:55:40;356.88;;;199.13;;
74715;SDS011;63234;37.558;127.058;2024-02-21T05:58:05;350.88;;;206.00;;
74715;SDS011;63234;37.558;127.058;2024-02-21T06:00:31;326.50;;;189.45;;
74715;SDS011;63234;37.558;127.058;2024-02-21T06:02:57;361.50;;;200.73;;
74715;SDS011;63234;37.558;127.058;2024-02-21T06:05:22;367.73;;;205.43;;
74715;SDS011;63234;37.558;127.058;2024-02-21T06:07:48;339.08;;;198.05;;
74715;SDS011;63234;37.558;127.058;2024-02-21T06:10:13;347.25;;;191.02;;
74715;SDS011;63234;37.558;127.058;2024-02-21T06:12:39;324.65;;;186.55;;
74715;SDS011;63234;37.558;127.058;2024-02-21T06:15:04;357.63;;;207.73;;
74715;SDS011;63234;37.558;127.058;2024-02-21T06:17:30;374.60;;;212.98;;
74715;SDS011;63234;37.558;127.058;2024-02-21T06:19:55;385.00;;;215.40;;
74715;SDS011;63234;37.558;127.058;2024-02-21T06:22:21;388.13;;;215.73;;
74715;SDS011;63234;37.558;127.058;2024-02-21T06:24:46;386.40;;;216.60;;
74715;SDS011;63234;37.558;127.058;2024-02-21T06:27:11;383.25;;;218.10;;
74715;SDS011;63234;37.558;127.058;2024-02-21T06:29:39;386.42;;;221.07;;
74715;SDS011;63234;37.558;127.058;2024-02-21T06:32:05;372.08;;;219.07;;
74715;SDS011;63234;37.558;127.058;2024-02-21T06:34:31;373.60;;;215.55;;
74715;SDS011;63234;37.558;127.058;2024-02-21T06:36:56;377.63;;;222.05;;
74715;SDS011;63234;37.558;127.058;2024-02-21T06:39:22;385.13;;;217.40;;
74715;SDS011;63234;37.558;127.058;2024-02-21T06:41:48;394.02;;;220.23;;
74715;SDS011;63234;37.558;127.058;2024-02-21T06:44:15;401.33;;;225.43;;
74715;SDS011;63234;37.558;127.058;2024-02-21T06:46:41;416.38;;;233.68;;
74715;SDS011;63234;37.558;127.058;2024-02-21T06:49:06;399.88;;;228.50;;
74715;SDS011;63234;37.558;127.058;2024-02-21T06:51:32;370.17;;;211.27;;
74715;SDS011;63234;37.558;127.058;2024-02-21T06:53:58;379.98;;;211.80;;
74715;SDS011;63234;37.558;127.058;2024-02-21T06:56:23;354.63;;;202.80;;
74715;SDS011;63234;37.558;127.058;2024-02-21T06:58:54;367.02;;;200.05;;
74715;SDS011;63234;37.558;127.058;2024-02-21T07:01:20;367.67;;;201.13;;
74715;SDS011;63234;37.558;127.058;2024-02-21T07:03:46;380.23;;;207.15;;
74715;SDS011;63234;37.558;127.058;2024-02-21T07:06:11;378.15;;;207.00;;
74715;SDS011;63234;37.558;127.058;2024-02-21T07:08:37;369.42;;;205.23;;
74715;SDS011;63234;37.558;127.058;2024-02-21T07:11:03;384.92;;;211.90;;
74715;SDS011;63234;37.558;127.058;2024-02-21T07:13:29;365.15;;;213.15;;
74715;SDS011;63234;37.558;127.058;2024-02-21T07:15:54;382.08;;;210.30;;
74715;SDS011;63234;37.558;127.058;2024-02-21T07:18:20;371.25;;;208.40;;
74715;SDS011;63234;37.558;127.058;2024-02-21T07:20:45;372.65;;;212.32;;
74715;SDS011;63234;37.558;127.058;2024-02-21T07:23:11;369.05;;;205.57;;
74715;SDS011;63234;37.558;127.058;2024-02-21T07:25:36;347.55;;;202.98;;
74715;SDS011;63234;37.558;127.058;2024-02-21T07:28:01;372.75;;;206.15;;
74715;SDS011;63234;37.558;127.058;2024-02-21T07:30:27;351.70;;;198.07;;
74715;SDS011;63234;37.558;127.058;2024-02-21T07:32:53;319.77;;;180.90;;
74715;SDS011;63234;37.558;127.058;2024-02-21T07:35:18;292.77;;;161.52;;
74715;SDS011;63234;37.558;127.058;2024-02-21T07:37:44;314.70;;;182.63;;
74715;SDS011;63234;37.558;127.058;2024-02-21T07:40:13;329.77;;;178.57;;
74715;SDS011;63234;37.558;127.058;2024-02-21T07:42:39;320.63;;;176.73;;
74715;SDS011;63234;37.558;127.058;2024-02-21T07:45:04;310.73;;;176.65;;
74715;SDS011;63234;37.558;127.058;2024-02-21T07:47:30;307.67;;;175.88;;
74715;SDS011;63234;37.558;127.058;2024-02-21T07:49:56;325.15;;;184.18;;
74715;SDS011;63234;37.558;127.058;2024-02-21T07:52:21;310.50;;;177.55;;
74715;SDS011;63234;37.558;127.058;2024-02-21T07:54:46;335.80;;;181.35;;
74715;SDS011;63234;37.558;127.058;2024-02-21T07:57:12;338.55;;;182.95;;
74715;SDS011;63234;37.558;127.058;2024-02-21T07:59:37;326.40;;;175.13;;
74715;SDS011;63234;37.558;127.058;2024-02-21T08:02:03;335.38;;;182.30;;
74715;SDS011;63234;37.558;127.058;2024-02-21T08:04:31;317.08;;;175.75;;
74715;SDS011;63234;37.558;127.058;2024-02-21T08:06:56;290.88;;;163.80;;
74715;SDS011;63234;37.558;127.058;2024-02-21T08:09:24;312.27;;;172.10;;
74715;SDS011;63234;37.558;127.058;2024-02-21T08:11:49;345.10;;;180.60;;
74715;SDS011;63234;37.558;127.058;2024-02-21T08:14:15;318.63;;;176.05;;
74715;SDS011;63234;37.558;127.058;2024-02-21T08:16:41;321.77;;;170.98;;
74715;SDS011;63234;37.558;127.058;2024-02-21T08:19:07;329.33;;;176.90;;
74715;SDS011;63234;37.558;127.058;2024-02-21T08:21:32;337.40;;;179.65;;
74715;SDS011;63234;37.558;127.058;2024-02-21T08:23:58;317.45;;;177.00;;
74715;SDS011;63234;37.558;127.058;2024-02-21T08:26:23;329.45;;;169.80;;
74715;SDS011;63234;37.558;127.058;2024-02-21T08:28:48;324.95;;;165.25;;
74715;SDS011;63234;37.558;127.058;2024-02-21T08:31:18;324.42;;;168.18;;
74715;SDS011;63234;37.558;127.058;2024-02-21T08:33:44;312.88;;;163.77;;
74715;SDS011;63234;37.558;127.058;2024-02-21T08:36:16;306.80;;;161.75;;
74715;SDS011;63234;37.558;127.058;2024-02-21T08:38:43;298.98;;;161.32;;
74715;SDS011;63234;37.558;127.058;2024-02-21T08:41:09;300.63;;;161.57;;
74715;SDS011;63234;37.558;127.058;2024-02-21T08:43:34;321.98;;;168.18;;
74715;SDS011;63234;37.558;127.058;2024-02-21T08:46:00;322.02;;;173.15;;
74715;SDS011;63234;37.558;127.058;2024-02-21T08:48:26;330.98;;;179.95;;
74715;SDS011;63234;37.558;127.058;2024-02-21T08:50:51;327.95;;;177.88;;
74715;SDS011;63234;37.558;127.058;2024-02-21T08:53:16;322.20;;;167.10;;
74715;SDS011;63234;37.558;127.058;2024-02-21T08:55:42;305.60;;;160.30;;
74715;SDS011;63234;37.558;127.058;2024-02-21T08:58:09;311.55;;;159.40;;
74715;SDS011;63234;37.558;127.058;2024-02-21T09:00:34;325.15;;;169.93;;
74715;SDS011;63234;37.558;127.058;2024-02-21T09:03:00;313.13;;;159.68;;
74715;SDS011;63234;37.558;127.058;2024-02-21T09:05:25;183.23;;;105.18;;
74715;SDS011;63234;37.558;127.058;2024-02-21T09:07:51;303.08;;;157.73;;
74715;SDS011;63234;37.558;127.058;2024-02-21T09:10:16;381.95;;;184.45;;
74715;SDS011;63234;37.558;127.058;2024-02-21T09:12:42;320.10;;;161.90;;
74715;SDS011;63234;37.558;127.058;2024-02-21T09:15:08;327.17;;;164.45;;
74715;SDS011;63234;37.558;127.058;2024-02-21T09:17:34;321.38;;;161.60;;
74715;SDS011;63234;37.558;127.058;2024-02-21T09:19:59;334.55;;;173.73;;
74715;SDS011;63234;37.558;127.058;2024-02-21T09:22:28;336.27;;;173.07;;
74715;SDS011;63234;37.558;127.058;2024-02-21T09:24:53;344.45;;;172.73;;
74715;SDS011;63234;37.558;127.058;2024-02-21T09:27:18;340.30;;;173.88;;
74715;SDS011;63234;37.558;127.058;2024-02-21T09:29:44;358.20;;;176.35;;
74715;SDS011;63234;37.558;127.058;2024-02-21T09:32:09;378.25;;;192.90;;
74715;SDS011;63234;37.558;127.058;2024-02-21T09:34:35;380.40;;;195.30;;
74715;SDS011;63234;37.558;127.058;2024-02-21T09:37:00;370.45;;;199.50;;
74715;SDS011;63234;37.558;127.058;2024-02-21T09:39:25;365.23;;;182.82;;
74715;SDS011;63234;37.558;127.058;2024-02-21T09:41:53;383.70;;;200.35;;
74715;SDS011;63234;37.558;127.058;2024-02-21T09:44:21;381.60;;;190.73;;
74715;SDS011;63234;37.558;127.058;2024-02-21T09:49:30;390.77;;;190.38;;
74715;SDS011;63234;37.558;127.058;2024-02-21T09:51:57;391.25;;;195.30;;
74715;SDS011;63234;37.558;127.058;2024-02-21T09:54:26;403.80;;;203.38;;
74715;SDS011;63234;37.558;127.058;2024-02-21T09:56:53;408.67;;;193.40;;
74715;SDS011;63234;37.558;127.058;2024-02-21T09:59:18;418.13;;;212.15;;
74715;SDS011;63234;37.558;127.058;2024-02-21T10:01:44;392.10;;;188.35;;
74715;SDS011;63234;37.558;127.058;2024-02-21T10:04:10;382.65;;;188.45;;
74715;SDS011;63234;37.558;127.058;2024-02-21T10:06:36;382.27;;;186.43;;
74715;SDS011;63234;37.558;127.058;2024-02-21T10:09:02;423.98;;;213.50;;
74715;SDS011;63234;37.558;127.058;2024-02-21T10:11:28;432.10;;;224.38;;
74715;SDS011;63234;37.558;127.058;2024-02-21T10:14:04;398.60;;;191.02;;
74715;SDS011;63234;37.558;127.058;2024-02-21T10:16:33;412.50;;;198.10;;
74715;SDS011;63234;37.558;127.058;2024-02-21T10:18:59;424.17;;;203.32;;
74715;SDS011;63234;37.558;127.058;2024-02-21T10:21:25;420.70;;;203.70;;
74715;SDS011;63234;37.558;127.058;2024-02-21T10:23:50;396.38;;;188.15;;
74715;SDS011;63234;37.558;127.058;2024-02-21T10:26:19;400.75;;;184.88;;
74715;SDS011;63234;37.558;127.058;2024-02-21T10:28:46;391.90;;;185.18;;
74715;SDS011;63234;37.558;127.058;2024-02-21T10:31:25;402.85;;;191.38;;
74715;SDS011;63234;37.558;127.058;2024-02-21T10:33:58;417.88;;;194.75;;
74715;SDS011;63234;37.558;127.058;2024-02-21T10:36:28;417.08;;;193.63;;
74715;SDS011;63234;37.558;127.058;2024-02-21T10:38:54;436.38;;;210.65;;
74715;SDS011;63234;37.558;127.058;2024-02-21T10:41:20;432.33;;;201.90;;
74715;SDS011;63234;37.558;127.058;2024-02-21T10:43:50;443.38;;;211.10;;
74715;SDS011;63234;37.558;127.058;2024-02-21T10:46:18;425.90;;;198.63;;
74715;SDS011;63234;37.558;127.058;2024-02-21T10:48:45;442.13;;;208.48;;
74715;SDS011;63234;37.558;127.058;2024-02-21T10:51:18;426.83;;;197.48;;
74715;SDS011;63234;37.558;127.058;2024-02-21T10:56:38;418.33;;;193.48;;
74715;SDS011;63234;37.558;127.058;2024-02-21T10:59:06;429.25;;;201.45;;
74715;SDS011;63234;37.558;127.058;2024-02-21T11:01:32;424.85;;;196.52;;
74715;SDS011;63234;37.558;127.058;2024-02-21T11:04:04;429.02;;;202.75;;
74715;SDS011;63234;37.558;127.058;2024-02-21T11:06:32;442.52;;;208.77;;
74715;SDS011;63234;37.558;127.058;2024-02-21T11:09:09;446.95;;;211.18;;
74715;SDS011;63234;37.558;127.058;2024-02-21T11:11:35;430.20;;;204.95;;
74715;SDS011;63234;37.558;127.058;2024-02-21T11:14:10;430.10;;;203.30;;
74715;SDS011;63234;37.558;127.058;2024-02-21T11:16:40;416.83;;;194.43;;
74715;SDS011;63234;37.558;127.058;2024-02-21T11:19:07;418.60;;;194.45;;
74715;SDS011;63234;37.558;127.058;2024-02-21T11:21:36;397.13;;;186.52;;
74715;SDS011;63234;37.558;127.058;2024-02-21T11:24:04;419.35;;;202.13;;
74715;SDS011;63234;37.558;127.058;2024-02-21T11:26:30;415.88;;;192.25;;
74715;SDS011;63234;37.558;127.058;2024-02-21T11:29:00;431.02;;;204.75;;
74715;SDS011;63234;37.558;127.058;2024-02-21T11:31:27;428.95;;;199.95;;
74715;SDS011;63234;37.558;127.058;2024-02-21T11:34:04;429.23;;;202.73;;
74715;SDS011;63234;37.558;127.058;2024-02-21T11:36:29;430.65;;;205.82;;
74715;SDS011;63234;37.558;127.058;2024-02-21T11:38:55;417.48;;;193.98;;
74715;SDS011;63234;37.558;127.058;2024-02-21T11:41:29;429.27;;;201.37;;
74715;SDS011;63234;37.558;127.058;2024-02-21T11:43:54;427.17;;;203.70;;
74715;SDS011;63234;37.558;127.058;2024-02-21T11:46:20;419.92;;;199.13;;
74715;SDS011;63234;37.558;127.058;2024-02-21T11:48:46;398.50;;;189.77;;
74715;SDS011;63234;37.558;127.058;2024-02-21T11:51:22;392.90;;;186.32;;
74715;SDS011;63234;37.558;127.058;2024-02-21T11:53:50;420.20;;;197.77;;
74715;SDS011;63234;37.558;127.058;2024-02-21T11:56:16;396.52;;;188.77;;
74715;SDS011;63234;37.558;127.058;2024-02-21T11:58:42;384.17;;;179.07;;
74715;SDS011;63234;37.558;127.058;2024-02-21T12:01:07;396.60;;;185.52;;
74715;SDS011;63234;37.558;127.058;2024-02-21T12:03:33;384.83;;;181.93;;
74715;SDS011;63234;37.558;127.058;2024-02-21T12:06:01;393.75;;;186.55;;
74715;SDS011;63234;37.558;127.058;2024-02-21T12:08:28;405.83;;;188.35;;
74715;SDS011;63234;37.558;127.058;2024-02-21T12:11:15;399.40;;;188.52;;
74715;SDS011;63234;37.558;127.058;2024-02-21T12:14:02;398.60;;;187.45;;
74715;SDS011;63234;37.558;127.058;2024-02-21T12:16:29;415.27;;;195.07;;
74715;SDS011;63234;37.558;127.058;2024-02-21T12:18:56;398.60;;;189.95;;
74715;SDS011;63234;37.558;127.058;2024-02-21T12:21:29;398.85;;;187.07;;
74715;SDS011;63234;37.558;127.058;2024-02-21T12:23:57;404.67;;;194.45;;
74715;SDS011;63234;37.558;127.058;2024-02-21T12:26:23;387.17;;;187.38;;
74715;SDS011;63234;37.558;127.058;2024-02-21T12:28:49;377.10;;;177.07;;
74715;SDS011;63234;37.558;127.058;2024-02-21T12:31:14;399.13;;;191.15;;
74715;SDS011;63234;37.558;127.058;2024-02-21T12:33:41;386.73;;;185.88;;
74715;SDS011;63234;37.558;127.058;2024-02-21T12:36:07;393.73;;;191.43;;
74715;SDS011;63234;37.558;127.058;2024-02-21T12:38:34;404.58;;;198.45;;
74715;SDS011;63234;37.558;127.058;2024-02-21T12:40:59;371.42;;;175.07;;
74715;SDS011;63234;37.558;127.058;2024-02-21T12:43:25;391.20;;;184.60;;
74715;SDS011;63234;37.558;127.058;2024-02-21T12:45:51;366.52;;;174.68;;
74715;SDS011;63234;37.558;127.058;2024-02-21T12:48:16;372.52;;;184.73;;
74715;SDS011;63234;37.558;127.058;2024-02-21T12:50:48;356.92;;;169.40;;
74715;SDS011;63234;37.558;127.058;2024-02-21T12:53:18;330.13;;;157.52;;
74715;SDS011;63234;37.558;127.058;2024-02-21T12:55:46;375.48;;;188.50;;
74715;SDS011;63234;37.558;127.058;2024-02-21T12:58:13;372.88;;;171.63;;
74715;SDS011;63234;37.558;127.058;2024-02-21T13:00:39;352.55;;;167.18;;
74715;SDS011;63234;37.558;127.058;2024-02-21T13:03:04;398.27;;;197.98;;
74715;SDS011;63234;37.558;127.058;2024-02-21T13:05:30;403.38;;;191.35;;
74715;SDS011;63234;37.558;127.058;2024-02-21T13:07:57;365.80;;;174.07;;
74715;SDS011;63234;37.558;127.058;2024-02-21T13:10:22;401.15;;;184.40;;
74715;SDS011;63234;37.558;127.058;2024-02-21T13:12:48;373.30;;;173.88;;
74715;SDS011;63234;37.558;127.058;2024-02-21T13:15:13;376.20;;;174.95;;
74715;SDS011;63234;37.558;127.058;2024-02-21T13:17:41;375.50;;;174.68;;
74715;SDS011;63234;37.558;127.058;2024-02-21T13:20:06;403.75;;;194.25;;
74715;SDS011;63234;37.558;127.058;2024-02-21T13:22:33;392.17;;;191.60;;
74715;SDS011;63234;37.558;127.058;2024-02-21T13:25:00;346.17;;;160.98;;
74715;SDS011;63234;37.558;127.058;2024-02-21T13:27:25;393.20;;;183.18;;
74715;SDS011;63234;37.558;127.058;2024-02-21T13:29:51;371.45;;;172.30;;
74715;SDS011;63234;37.558;127.058;2024-02-21T13:32:18;363.92;;;172.52;;
74715;SDS011;63234;37.558;127.058;2024-02-21T13:34:43;368.50;;;172.85;;